Weather at Sutter Medical Center Castro Valley Heliport

Public forecast

Using degrees Fahrenheit for public forecast. Weather courtesy of forecast.io.

Closest aviation weather report (METAR) to Sutter Medical Center Castro Valley Heliport

Closest report is Hayward Executive Airport, 2.8 nm (5.3 km) SSW.

2024/05/26 07:54 (retrieved 9 minutes ago)

KHWD 260754Z AUTO 26006KT 10SM OVC017 13/08 A3006 RMK AO2 SLP187 T01280078 401780122

Closest aviation forecast (TAF) to Sutter Medical Center Castro Valley Heliport

Closest forecast is Metropolitan Oakland International Airport, 6.4 nm (11.8 km) WNW.

2024/05/26 06:36 (retrieved 1 hour ago)

TAF KOAK 260533Z 2606/2712 26010KT P6SM OVC010 FM261700 26009KT P6SM FEW011 FM262000 28014KT P6SM SKC FM270400 27010KT P6SM SCT009 FM271000 23006KT P6SM BKN010